createdAt,value
2018-08-07T00:00:38.925Z,18.27
2018-08-07T00:01:38.925Z,18.21
2018-08-07T00:02:38.920Z,18.25
2018-08-07T00:03:38.662Z,18.26
2018-08-07T00:04:38.909Z,18.2
2018-08-07T00:05:38.908Z,18.17
2018-08-07T00:06:38.901Z,18.21
2018-08-07T00:07:38.903Z,18.23
2018-08-07T00:08:38.895Z,18.2
2018-08-07T00:09:38.891Z,18.15
2018-08-07T00:10:38.636Z,18.17
2018-08-07T00:11:38.381Z,18.11
2018-08-07T00:12:38.878Z,18.12
2018-08-07T00:13:38.876Z,18.12
2018-08-07T00:14:38.369Z,18.12
2018-08-07T00:15:38.868Z,18.11
2018-08-07T00:16:38.867Z,18.05
2018-08-07T00:17:38.889Z,18.15
2018-08-07T00:18:38.855Z,18.12
2018-08-07T00:19:38.857Z,18.1
2018-08-07T00:20:38.865Z,17.97
2018-08-07T00:21:38.847Z,18
2018-08-07T00:22:38.591Z,18.03
2018-08-07T00:23:38.590Z,18.03
2018-08-07T00:24:38.602Z,17.9
2018-08-07T00:25:38.830Z,17.95
2018-08-07T00:26:38.580Z,17.9
2018-08-07T00:27:38.573Z,17.96
2018-08-07T00:28:38.820Z,17.9
2018-08-07T00:29:38.565Z,17.89
2018-08-07T00:30:38.813Z,17.89
2018-08-07T00:31:38.558Z,17.87
2018-08-07T00:32:38.805Z,17.9
2018-08-07T00:33:38.804Z,17.79
2018-08-07T00:34:38.798Z,17.84
2018-08-07T00:35:38.796Z,17.75
2018-08-07T00:36:38.539Z,17.87
2018-08-07T00:37:38.313Z,17.81
2018-08-07T00:38:38.783Z,17.77
2018-08-07T00:39:38.779Z,17.71
2018-08-07T00:40:38.776Z,17.87
2018-08-07T00:41:38.525Z,17.82
2018-08-07T00:42:38.767Z,17.81
2018-08-07T00:43:38.771Z,17.81
2018-08-07T00:44:38.764Z,17.74
2018-08-07T00:45:38.757Z,17.74
2018-08-07T00:46:38.754Z,17.68
2018-08-07T00:47:38.748Z,17.71
2018-08-07T00:48:38.745Z,17.66
2018-08-07T00:49:38.739Z,17.64
2018-08-07T00:50:38.739Z,17.64
2018-08-07T00:51:38.479Z,17.64
2018-08-07T00:52:38.476Z,17.62
2018-08-07T00:53:38.724Z,17.58
2018-08-07T00:54:38.719Z,17.54
2018-08-07T00:55:38.716Z,17.68
2018-08-07T00:56:38.713Z,17.55
2018-08-07T00:57:38.707Z,17.62
2018-08-07T00:58:38.456Z,17.68
2018-08-07T00:59:38.709Z,17.56
2018-08-07T01:00:38.695Z,17.56
2018-08-07T01:01:38.692Z,17.59
2018-08-07T01:02:38.689Z,17.55
2018-08-07T01:03:38.684Z,17.51
2018-08-07T01:04:38.682Z,17.44
2018-08-07T01:06:38.676Z,17.52
2018-08-07T01:07:38.417Z,17.46
2018-08-07T01:08:38.666Z,17.46
2018-08-07T01:09:38.408Z,17.51
2018-08-07T01:10:38.660Z,17.4
2018-08-07T01:11:38.658Z,17.41
2018-08-07T01:12:38.649Z,17.41
2018-08-07T01:13:38.641Z,17.4
2018-08-07T01:14:39.914Z,17.43
2018-08-07T01:15:38.640Z,17.4
2018-08-07T01:16:38.630Z,17.41
2018-08-07T01:17:38.631Z,17.38
2018-08-07T01:18:39.898Z,17.37
2018-08-07T01:19:38.366Z,17.37
2018-08-07T01:20:41.165Z,17.38
2018-08-07T01:21:38.361Z,17.4
2018-08-07T01:22:38.605Z,17.4
2018-08-07T01:23:38.348Z,17.38
2018-08-07T01:24:38.596Z,17.22
2018-08-07T01:25:38.594Z,17.23
2018-08-07T01:26:38.628Z,17.28
2018-08-07T01:27:38.338Z,17.22
2018-08-07T01:28:38.579Z,17.38
2018-08-07T01:29:38.575Z,17.36
2018-08-07T01:30:38.575Z,17.36
2018-08-07T01:32:38.727Z,17.26
2018-08-07T01:33:38.560Z,17.25
2018-08-07T01:34:41.914Z,17.31
2018-08-07T01:35:38.550Z,17.26
2018-08-07T01:36:38.550Z,17.33
2018-08-07T01:37:38.545Z,17.21
2018-08-07T01:38:38.543Z,17.23
2018-08-07T01:39:38.536Z,17.14
2018-08-07T01:40:38.532Z,17.28
2018-08-07T01:41:38.271Z,17.22
2018-08-07T01:42:38.517Z,17.16
2018-08-07T01:43:38.516Z,17.15
2018-08-07T01:44:38.514Z,17.18
2018-08-07T01:45:38.254Z,17.18
2018-08-07T01:46:38.253Z,17.08
2018-08-07T01:47:38.498Z,17.22
2018-08-07T01:48:38.493Z,17.07
2018-08-07T01:49:38.236Z,17.15
2018-08-07T01:50:38.487Z,17.08
2018-08-07T01:51:38.483Z,17.06
2018-08-07T01:52:38.474Z,17.07
2018-08-07T01:53:38.219Z,17.06
2018-08-07T01:54:38.467Z,17.07
2018-08-07T01:55:38.462Z,17.03
2018-08-07T01:56:38.206Z,16.97
2018-08-07T01:57:38.453Z,17.01
2018-08-07T01:58:38.449Z,17
2018-08-07T01:59:38.491Z,17.01
2018-08-07T02:00:38.447Z,17
2018-08-07T02:01:38.441Z,16.98
2018-08-07T02:02:38.181Z,17.04
2018-08-07T02:03:38.175Z,16.98
2018-08-07T02:04:38.171Z,17
2018-08-07T02:05:38.417Z,16.98
2018-08-07T02:06:38.164Z,16.93
2018-08-07T02:07:38.414Z,17
2018-08-07T02:08:38.407Z,16.97
2018-08-07T02:09:38.401Z,17.03
2018-08-07T02:10:38.396Z,17.01
2018-08-07T02:11:38.141Z,17.01
2018-08-07T02:12:38.390Z,16.96
2018-08-07T02:13:38.132Z,17.04
2018-08-07T02:14:38.380Z,16.98
2018-08-07T02:15:38.374Z,16.93
2018-08-07T02:16:38.370Z,16.96
2018-08-07T02:17:38.114Z,16.97
2018-08-07T02:18:38.366Z,16.93
2018-08-07T02:19:38.105Z,16.96
2018-08-07T02:20:38.352Z,16.94
2018-08-07T02:21:38.351Z,17
2018-08-07T02:22:38.345Z,16.94
2018-08-07T02:23:38.088Z,16.98
2018-08-07T02:24:38.337Z,16.98
2018-08-07T02:25:38.079Z,16.97
2018-08-07T02:26:38.330Z,16.96
2018-08-07T02:27:38.324Z,17
2018-08-07T02:28:38.064Z,16.94
2018-08-07T02:29:38.312Z,16.91
2018-08-07T02:30:38.311Z,16.97
2018-08-07T02:31:38.053Z,16.93
2018-08-07T02:32:38.303Z,16.91
2018-08-07T02:33:38.043Z,16.86
2018-08-07T02:34:38.377Z,16.91
2018-08-07T02:35:38.651Z,16.96
2018-08-07T02:36:38.288Z,16.91
2018-08-07T02:37:38.280Z,16.91
2018-08-07T02:38:38.035Z,16.91
2018-08-07T02:39:38.269Z,16.86
2018-08-07T02:40:38.270Z,16.91
2018-08-07T02:41:38.259Z,16.89
2018-08-07T02:42:38.252Z,16.86
2018-08-07T02:43:38.247Z,16.89
2018-08-07T02:44:38.255Z,16.88
2018-08-07T02:45:38.247Z,16.86
2018-08-07T02:46:38.247Z,16.96
2018-08-07T02:47:38.243Z,16.81
2018-08-07T02:48:38.239Z,16.93
2018-08-07T02:49:38.220Z,16.88
2018-08-07T02:50:38.225Z,16.85
2018-08-07T02:51:38.224Z,16.89
2018-08-07T02:52:38.211Z,17
2018-08-07T02:53:38.203Z,16.93
2018-08-07T02:54:38.211Z,16.91
2018-08-07T02:55:38.193Z,16.98
2018-08-07T02:56:37.944Z,16.93
2018-08-07T02:57:38.183Z,16.86
2018-08-07T02:58:37.928Z,16.88
2018-08-07T02:59:38.177Z,16.89
2018-08-07T03:00:38.178Z,16.97
2018-08-07T03:01:38.170Z,16.91
2018-08-07T03:02:38.162Z,16.97
2018-08-07T03:03:38.162Z,16.94
2018-08-07T03:04:37.900Z,16.89
2018-08-07T03:05:38.160Z,16.91
2018-08-07T03:06:38.141Z,16.96
2018-08-07T03:07:38.147Z,16.97
2018-08-07T03:08:37.883Z,16.94
2018-08-07T03:09:38.137Z,16.94
2018-08-07T03:10:38.124Z,16.94
2018-08-07T03:11:38.120Z,16.97
2018-08-07T03:12:38.124Z,16.93
2018-08-07T03:13:37.864Z,16.91
2018-08-07T03:14:38.113Z,16.96
2018-08-07T03:15:38.106Z,16.96
2018-08-07T03:16:38.098Z,16.97
2018-08-07T03:17:37.912Z,16.93
2018-08-07T03:18:38.091Z,16.98
2018-08-07T03:19:37.582Z,17
2018-08-07T03:20:38.088Z,16.96
2018-08-07T03:21:38.076Z,16.91
2018-08-07T03:22:38.091Z,17
2018-08-07T03:23:38.080Z,17.06
2018-08-07T03:24:38.060Z,17.01
2018-08-07T03:25:38.081Z,17.03
2018-08-07T03:26:37.806Z,17.01
2018-08-07T03:27:38.054Z,17.01
2018-08-07T03:28:37.791Z,17.11
2018-08-07T03:29:39.062Z,16.98
2018-08-07T03:30:38.039Z,17.06
2018-08-07T03:31:37.782Z,17.14
2018-08-07T03:32:38.025Z,17.11
2018-08-07T03:33:38.028Z,17
2018-08-07T03:34:38.023Z,17.11
2018-08-07T03:35:38.025Z,17.08
2018-08-07T03:36:38.006Z,17.16
2018-08-07T03:37:38.003Z,17.12
2018-08-07T03:38:37.747Z,17.12
2018-08-07T03:39:37.994Z,17.18
2018-08-07T03:40:37.737Z,17.23
2018-08-07T03:41:37.985Z,17.15
2018-08-07T03:42:37.979Z,17.07
2018-08-07T03:43:37.722Z,17.19
2018-08-07T03:44:37.974Z,17.26
2018-08-07T03:45:37.966Z,17.12
2018-08-07T03:46:37.965Z,17.25
2018-08-07T03:47:37.961Z,17.23
2018-08-07T03:48:37.954Z,17.34
2018-08-07T03:49:37.949Z,17.28
2018-08-07T03:50:37.948Z,17.36
2018-08-07T03:51:37.689Z,17.37
2018-08-07T03:52:37.938Z,17.33
2018-08-07T03:53:37.680Z,17.4
2018-08-07T03:54:37.929Z,17.38
2018-08-07T03:55:37.929Z,17.34
2018-08-07T03:56:37.918Z,17.38
2018-08-07T03:57:37.913Z,17.46
2018-08-07T03:58:37.914Z,17.54
2018-08-07T03:59:37.907Z,17.48
2018-08-07T04:00:37.907Z,17.55
2018-08-07T04:01:37.896Z,17.62
2018-08-07T04:02:37.900Z,17.7
2018-08-07T04:03:37.893Z,17.64
2018-08-07T04:04:37.882Z,17.74
2018-08-07T04:05:37.878Z,17.71
2018-08-07T04:06:37.626Z,17.84
2018-08-07T04:07:37.872Z,17.81
2018-08-07T04:08:37.870Z,17.87
2018-08-07T04:09:37.912Z,17.84
2018-08-07T04:10:37.861Z,17.92
2018-08-07T04:11:38.049Z,18.05
2018-08-07T04:12:37.857Z,18.21
2018-08-07T04:13:37.851Z,18.3
2018-08-07T04:14:37.846Z,18.47
2018-08-07T04:15:37.854Z,18.66
2018-08-07T04:16:37.834Z,18.82
2018-08-07T04:17:37.581Z,19.07
2018-08-07T04:18:37.829Z,19.33
2018-08-07T04:19:37.825Z,19.54
2018-08-07T04:20:37.822Z,19.65
2018-08-07T04:21:37.567Z,19.88
2018-08-07T04:22:37.817Z,20.17
2018-08-07T04:23:37.813Z,20.55
2018-08-07T04:24:37.811Z,20.8
2018-08-07T04:25:37.812Z,21.09
2018-08-07T04:26:37.553Z,21.42
2018-08-07T04:27:37.807Z,21.67
2018-08-07T04:28:37.805Z,22.05
2018-08-07T04:29:37.800Z,22.3
2018-08-07T04:30:37.550Z,22.58
2018-08-07T04:31:37.548Z,22.88
2018-08-07T04:32:37.801Z,23.2
2018-08-07T04:33:37.794Z,23.47
2018-08-07T04:34:37.544Z,23.83
2018-08-07T04:35:37.797Z,24.05
2018-08-07T04:36:37.546Z,24.25
2018-08-07T04:37:37.793Z,24.5
2018-08-07T04:38:37.547Z,24.85
2018-08-07T04:39:37.798Z,25.15
2018-08-07T04:40:37.811Z,25.43
2018-08-07T04:41:37.796Z,25.75
2018-08-07T04:42:37.797Z,25.94
2018-08-07T04:43:37.549Z,26.25
2018-08-07T04:44:37.549Z,26.57
2018-08-07T04:45:37.803Z,26.81
2018-08-07T04:46:37.554Z,27
2018-08-07T04:47:37.818Z,27.22
2018-08-07T04:48:37.560Z,27.46
2018-08-07T04:49:37.834Z,27.67
2018-08-07T04:50:37.832Z,28.04
2018-08-07T04:51:37.820Z,28.18
2018-08-07T04:52:37.830Z,28.44
2018-08-07T04:53:37.830Z,28.76
2018-08-07T04:54:37.843Z,28.96
2018-08-07T04:55:37.838Z,29.18
2018-08-07T04:56:37.843Z,29.46
2018-08-07T04:57:38.150Z,29.67
2018-08-07T04:58:37.875Z,30.02
2018-08-07T04:59:37.860Z,30.2
2018-08-07T05:00:37.872Z,30.43
2018-08-07T05:01:37.877Z,30.65
2018-08-07T05:02:37.626Z,30.84
2018-08-07T05:03:37.889Z,30.97
2018-08-07T05:04:37.890Z,31.17
2018-08-07T05:05:37.645Z,31.35
2018-08-07T05:06:37.652Z,31.56
2018-08-07T05:07:37.909Z,31.72
2018-08-07T05:08:37.920Z,31.85
2018-08-07T05:09:37.925Z,31.99
2018-08-07T05:10:38.343Z,32.04
2018-08-07T05:11:37.695Z,32.23
2018-08-07T05:12:37.959Z,32.44
2018-08-07T05:13:37.454Z,32.52
2018-08-07T05:14:37.964Z,32.52
2018-08-07T05:15:37.469Z,32.55
2018-08-07T05:16:37.987Z,32.63
2018-08-07T05:17:37.991Z,32.69
2018-08-07T05:18:37.753Z,32.65
2018-08-07T05:19:38.008Z,32.82
2018-08-07T05:20:38.014Z,32.88
2018-08-07T05:21:38.025Z,32.89
2018-08-07T05:22:37.927Z,32.93
2018-08-07T05:23:38.046Z,33.03
2018-08-07T05:24:38.052Z,33.12
2018-08-07T05:25:38.061Z,33.11
2018-08-07T05:26:38.073Z,33.31
2018-08-07T05:27:37.828Z,33.37
2018-08-07T05:28:37.947Z,33.49
2018-08-07T05:29:37.909Z,33.68
2018-08-07T05:30:38.110Z,33.82
2018-08-07T05:31:37.867Z,33.82
2018-08-07T05:32:38.130Z,34.03
2018-08-07T05:33:38.136Z,34.1
2018-08-07T05:34:38.150Z,34.13
2018-08-07T05:35:37.902Z,34.21
2018-08-07T05:36:37.918Z,34.19
2018-08-07T05:37:37.925Z,34.37
2018-08-07T05:38:38.186Z,34.49
2018-08-07T05:39:37.693Z,34.43
2018-08-07T05:40:38.340Z,34.62
2018-08-07T05:41:38.261Z,34.7
2018-08-07T05:42:38.205Z,34.84
2018-08-07T05:43:37.986Z,34.88
2018-08-07T05:44:38.259Z,35.03
2018-08-07T05:45:38.007Z,35.02
2018-08-07T05:46:38.273Z,35.11
2018-08-07T05:47:38.278Z,35.11
2018-08-07T05:48:38.289Z,35.38
2018-08-07T05:49:38.301Z,35.5
2018-08-07T05:50:39.028Z,35.52
2018-08-07T05:51:38.551Z,35.66
2018-08-07T05:52:38.128Z,35.77
2018-08-07T05:53:38.346Z,35.9
2018-08-07T05:54:38.359Z,35.92
2018-08-07T05:55:38.120Z,35.96
2018-08-07T05:56:38.664Z,36.12
2018-08-07T05:57:38.394Z,36.23
2018-08-07T05:58:38.420Z,36.32
2018-08-07T05:59:38.161Z,36.37
2018-08-07T06:00:38.441Z,36.46
2018-08-07T06:01:38.187Z,36.59
2018-08-07T06:02:38.459Z,36.68
2018-08-07T06:03:38.464Z,36.76
2018-08-07T06:04:38.479Z,36.81
2018-08-07T06:05:38.232Z,36.9
2018-08-07T06:06:38.503Z,37.1
2018-08-07T06:07:51.243Z,37.1
2018-08-07T06:08:38.278Z,37.25
2018-08-07T06:09:38.532Z,37.29
2018-08-07T06:10:38.557Z,37.21
2018-08-07T06:11:38.562Z,37.22
2018-08-07T06:12:38.328Z,37.22
2018-08-07T06:13:38.584Z,37.12
2018-08-07T06:14:38.604Z,37.31
2018-08-07T06:15:38.357Z,37.39
2018-08-07T06:16:38.628Z,37.49
2018-08-07T06:17:38.638Z,37.43
2018-08-07T06:18:38.398Z,37.56
2018-08-07T06:19:38.411Z,37.59
2018-08-07T06:20:38.674Z,37.64
2018-08-07T06:21:38.685Z,37.72
2018-08-07T06:22:38.700Z,37.76
2018-08-07T06:23:38.714Z,37.75
2018-08-07T06:24:38.730Z,37.74
2018-08-07T06:25:38.954Z,37.74
2018-08-07T06:26:38.506Z,37.94
2018-08-07T06:27:38.774Z,37.88
2018-08-07T06:28:38.644Z,38
2018-08-07T06:29:38.892Z,38.03
2018-08-07T06:30:51.543Z,38.04
2018-08-07T06:31:38.719Z,38.11
2018-08-07T06:32:39.863Z,38.15
2018-08-07T06:33:38.601Z,38.22
2018-08-07T06:34:38.867Z,38.31
2018-08-07T06:35:38.881Z,38.46
2018-08-07T06:36:38.645Z,38.42
2018-08-07T06:37:38.690Z,38.52
2018-08-07T06:38:38.673Z,38.59
2018-08-07T06:39:38.688Z,38.71
2018-08-07T06:40:38.702Z,38.69
2018-08-07T06:41:38.979Z,38.76
2018-08-07T06:42:38.985Z,38.83
2018-08-07T06:43:39.003Z,38.96
2018-08-07T06:44:38.764Z,39.07
2018-08-07T06:45:38.778Z,39.38
2018-08-07T06:46:39.046Z,39.47
2018-08-07T06:47:39.061Z,39.55
2018-08-07T06:48:39.084Z,39.67
2018-08-07T06:49:39.093Z,39.67
2018-08-07T06:50:39.113Z,39.75
2018-08-07T06:51:39.124Z,39.78
2018-08-07T06:52:38.885Z,39.89
2018-08-07T06:53:38.652Z,39.94
2018-08-07T06:54:39.176Z,40.13
2018-08-07T06:55:39.191Z,40.15
2018-08-07T06:56:39.206Z,40.2
2018-08-07T06:57:39.219Z,40.26
2018-08-07T06:58:38.988Z,40.22
2018-08-07T06:59:39.254Z,40.25
2018-08-07T07:00:39.018Z,40.16
2018-08-07T07:01:39.033Z,40.35
2018-08-07T07:02:39.423Z,40.43
2018-08-07T07:03:39.321Z,40.54
2018-08-07T07:04:39.340Z,40.67
2018-08-07T07:05:39.371Z,40.91
2018-08-07T07:06:39.372Z,40.91
2018-08-07T07:07:39.389Z,40.94
2018-08-07T07:08:39.152Z,40.94
2018-08-07T07:09:39.786Z,40.95
2018-08-07T07:10:39.192Z,41.06
2018-08-07T07:11:39.455Z,41.16
2018-08-07T07:12:39.221Z,41.29
2018-08-07T07:13:39.493Z,41.25
2018-08-07T07:14:39.514Z,41.39
2018-08-07T07:15:39.278Z,41.48
2018-08-07T07:16:39.294Z,41.54
2018-08-07T07:17:39.307Z,41.52
2018-08-07T07:18:39.582Z,41.49
2018-08-07T07:19:39.598Z,41.62
2018-08-07T07:20:39.622Z,41.62
2018-08-07T07:21:39.634Z,41.54
2018-08-07T07:22:39.397Z,41.47
2018-08-07T07:23:39.674Z,41.55
2018-08-07T07:24:39.685Z,41.51
2018-08-07T07:25:39.699Z,41.54
2018-08-07T07:26:39.526Z,41.51
2018-08-07T07:27:39.491Z,41.66
2018-08-07T07:28:39.755Z,41.69
2018-08-07T07:29:39.770Z,41.71
2018-08-07T07:30:39.537Z,41.87
2018-08-07T07:31:39.814Z,42.02
2018-08-07T07:32:39.823Z,42.11
2018-08-07T07:33:39.863Z,42.18
2018-08-07T07:34:39.922Z,42.23
2018-08-07T07:35:39.628Z,42.21
2018-08-07T07:36:39.644Z,42.28
2018-08-07T07:37:39.911Z,42.25
2018-08-07T07:38:39.934Z,42.4
2018-08-07T07:39:39.951Z,42.52
2018-08-07T07:40:39.836Z,42.66
2018-08-07T07:41:39.987Z,42.68
2018-08-07T07:42:40.007Z,42.65
2018-08-07T07:43:39.768Z,42.8
2018-08-07T07:44:40.042Z,42.91
2018-08-07T07:45:40.057Z,42.87
2018-08-07T07:46:40.321Z,43.02
2018-08-07T07:47:39.843Z,42.93
2018-08-07T07:48:39.861Z,42.84
2018-08-07T07:49:40.136Z,42.98
2018-08-07T07:50:40.149Z,43.14
2018-08-07T07:51:39.665Z,43.14
2018-08-07T07:52:40.196Z,43.17
2018-08-07T07:53:40.207Z,43.23
2018-08-07T07:55:40.246Z,43.45
2018-08-07T07:57:41.556Z,43.53
2018-08-07T07:58:41.714Z,43.61
2018-08-07T07:59:40.319Z,43.78
2018-08-07T08:00:40.334Z,43.87
2018-08-07T08:01:41.379Z,43.87
2018-08-07T08:03:42.481Z,43.86
2018-08-07T08:09:40.510Z,43.57
2018-08-07T08:27:40.854Z,42.7
2018-08-07T08:28:40.871Z,42.59
2018-08-07T08:29:43.521Z,42.33
2018-08-07T08:30:42.137Z,42.25
2018-08-07T08:31:44.084Z,42.08
2018-08-07T08:32:40.992Z,41.83
2018-08-07T08:33:40.965Z,41.64
2018-08-07T08:34:40.979Z,41.41
2018-08-07T08:35:40.759Z,41.18
2018-08-07T08:36:41.013Z,40.94
2018-08-07T08:37:41.033Z,40.77
2018-08-07T08:38:41.047Z,40.57
2018-08-07T08:39:41.064Z,40.39
2018-08-07T08:40:41.089Z,40.29
2018-08-07T08:41:40.850Z,40.16
2018-08-07T08:42:41.127Z,40.04
2018-08-07T08:43:41.138Z,39.79
2018-08-07T08:44:41.154Z,39.52
2018-08-07T08:45:41.168Z,39.26
2018-08-07T08:46:41.188Z,39.06
2018-08-07T08:47:40.949Z,38.75
2018-08-07T08:48:41.584Z,38.52
2018-08-07T08:49:41.233Z,38.25
2018-08-07T08:50:41.257Z,37.97
2018-08-07T08:51:41.271Z,37.5
2018-08-07T08:52:41.280Z,37.12
2018-08-07T08:53:41.293Z,36.81
2018-08-07T08:54:41.055Z,36.53
2018-08-07T08:55:41.329Z,36.22
2018-08-07T08:56:41.335Z,35.97
2018-08-07T08:57:41.347Z,35.59
2018-08-07T08:58:41.363Z,35.45
2018-08-07T08:59:41.118Z,35.18
2018-08-07T09:00:41.455Z,34.91
2018-08-07T09:01:41.394Z,34.72
2018-08-07T09:02:41.158Z,34.4
2018-08-07T09:03:41.166Z,34.25
2018-08-07T09:04:41.425Z,34.17
2018-08-07T09:05:41.435Z,34.06
2018-08-07T09:06:41.446Z,33.84
2018-08-07T09:07:41.209Z,33.79
2018-08-07T09:08:41.494Z,33.61
2018-08-07T09:09:41.476Z,33.47
2018-08-07T09:10:42.155Z,33.38
2018-08-07T09:11:41.515Z,33.22
2018-08-07T09:12:41.509Z,33.11
2018-08-07T09:13:41.259Z,33.06
2018-08-07T09:14:41.528Z,32.97
2018-08-07T09:15:41.527Z,32.89
2018-08-07T09:16:41.535Z,32.77
2018-08-07T09:17:41.543Z,32.67
2018-08-07T09:18:41.299Z,32.56
2018-08-07T09:19:41.466Z,32.45
2018-08-07T09:20:41.587Z,32.47
2018-08-07T09:22:41.591Z,32.26
2018-08-07T09:23:41.360Z,32.23
2018-08-07T09:24:41.604Z,32.22
2018-08-07T09:25:42.140Z,32.15
2018-08-07T09:26:41.622Z,32.15
2018-08-07T09:27:41.117Z,32.07
2018-08-07T09:28:41.638Z,32.01
2018-08-07T09:29:41.632Z,31.92
2018-08-07T09:30:41.655Z,31.92
2018-08-07T09:31:41.151Z,31.93
2018-08-07T09:32:41.667Z,31.81
2018-08-07T09:33:41.659Z,31.85
2018-08-07T09:34:41.676Z,31.73
2018-08-07T09:35:41.172Z,31.76
2018-08-07T09:36:41.689Z,31.69
2018-08-07T09:37:41.688Z,31.73
2018-08-07T09:38:41.692Z,31.76
2018-08-07T09:39:41.601Z,31.81
2018-08-07T09:40:41.464Z,31.73
2018-08-07T09:41:41.464Z,31.76
2018-08-07T09:42:41.467Z,31.69
2018-08-07T09:43:41.726Z,31.78
2018-08-07T09:44:41.732Z,31.7
2018-08-07T09:45:41.736Z,31.68
2018-08-07T09:46:42.088Z,31.76
2018-08-07T09:47:41.499Z,31.68
2018-08-07T09:48:41.755Z,31.72
2018-08-07T09:49:41.868Z,31.68
2018-08-07T09:50:41.518Z,31.68
2018-08-07T09:51:41.522Z,31.62
2018-08-07T09:52:41.781Z,31.7
2018-08-07T09:53:41.536Z,31.61
2018-08-07T09:54:41.794Z,31.61
2018-08-07T09:55:41.796Z,31.51
2018-08-07T09:56:41.806Z,31.53
2018-08-07T09:57:41.558Z,31.54
2018-08-07T09:58:41.732Z,31.48
2018-08-07T09:59:41.822Z,31.61
2018-08-07T10:00:41.831Z,31.48
2018-08-07T10:01:41.842Z,31.63
2018-08-07T10:02:41.838Z,31.56
2018-08-07T10:03:41.848Z,31.58
2018-08-07T10:04:41.860Z,31.58
2018-08-07T10:05:41.798Z,31.66
2018-08-07T10:06:41.613Z,31.65
2018-08-07T10:07:41.619Z,31.66
2018-08-07T10:08:41.875Z,31.72
2018-08-07T10:09:41.635Z,31.69
2018-08-07T10:10:41.888Z,31.78
2018-08-07T10:11:41.893Z,31.68
2018-08-07T10:12:41.765Z,31.75
2018-08-07T10:13:41.653Z,31.7
2018-08-07T10:14:41.663Z,31.81
2018-08-07T10:15:41.922Z,31.75
2018-08-07T10:16:41.923Z,31.78
2018-08-07T10:17:41.930Z,31.76
2018-08-07T10:18:41.432Z,31.8
2018-08-07T10:19:41.944Z,31.81
2018-08-07T10:20:41.694Z,31.92
2018-08-07T10:21:41.737Z,31.86
2018-08-07T10:22:41.960Z,31.95
2018-08-07T10:23:41.971Z,31.89
2018-08-07T10:24:41.973Z,31.99
2018-08-07T10:25:41.981Z,32
2018-08-07T10:26:41.986Z,32
2018-08-07T10:27:41.994Z,32.01
2018-08-07T10:28:41.997Z,31.99
2018-08-07T10:29:41.498Z,32.1
2018-08-07T10:30:42.361Z,32.08
2018-08-07T10:31:41.763Z,32.07
2018-08-07T10:32:42.020Z,32.06
2018-08-07T10:33:41.775Z,32.21
2018-08-07T10:34:42.034Z,32.18
2018-08-07T10:35:42.035Z,32.11
2018-08-07T10:36:41.843Z,32.26
2018-08-07T10:37:41.799Z,32.29
2018-08-07T10:38:42.055Z,32.4
2018-08-07T10:39:41.809Z,32.22
2018-08-07T10:40:42.338Z,32.28
2018-08-07T10:41:42.073Z,32.32
2018-08-07T10:42:42.078Z,32.38
2018-08-07T10:43:42.610Z,32.41
2018-08-07T10:44:42.091Z,32.51
2018-08-07T10:45:42.099Z,32.55
2018-08-07T10:46:42.108Z,32.41
2018-08-07T10:47:42.212Z,32.44
2018-08-07T10:48:41.864Z,32.56
2018-08-07T10:49:41.869Z,32.57
2018-08-07T10:50:42.235Z,32.59
2018-08-07T10:51:41.888Z,32.52
2018-08-07T10:52:42.141Z,32.51
2018-08-07T10:53:42.146Z,32.55
2018-08-07T10:54:41.902Z,32.56
2018-08-07T10:55:41.909Z,32.56
2018-08-07T10:56:42.084Z,32.56
2018-08-07T10:57:41.918Z,32.63
2018-08-07T10:58:42.182Z,32.59
2018-08-07T10:59:41.933Z,32.56
2018-08-07T11:00:42.189Z,32.66
2018-08-07T11:01:42.245Z,32.63
2018-08-07T11:02:42.207Z,32.65
2018-08-07T11:03:42.210Z,32.67
2018-08-07T11:04:42.213Z,32.7
2018-08-07T11:05:42.352Z,32.72
2018-08-07T11:06:42.227Z,32.78
2018-08-07T11:07:42.243Z,32.74
2018-08-07T11:08:42.246Z,32.69
2018-08-07T11:09:42.246Z,32.78
2018-08-07T11:10:42.005Z,32.63
2018-08-07T11:11:42.256Z,32.77
2018-08-07T11:12:42.264Z,32.79
2018-08-07T11:13:42.380Z,32.75
2018-08-07T11:14:42.278Z,32.78
2018-08-07T11:15:42.291Z,32.79
2018-08-07T11:16:42.300Z,32.88
2018-08-07T11:17:42.299Z,32.85
2018-08-07T11:18:42.304Z,32.89
2018-08-07T11:19:42.310Z,32.89
2018-08-07T11:20:42.319Z,32.92
2018-08-07T11:21:42.323Z,32.85
2018-08-07T11:22:42.330Z,32.93
2018-08-07T11:23:42.334Z,32.92
2018-08-07T11:24:42.455Z,32.94
2018-08-07T11:25:42.347Z,32.97
2018-08-07T11:26:42.353Z,32.99
2018-08-07T11:27:42.359Z,32.99
2018-08-07T11:28:42.369Z,33.06
2018-08-07T11:29:42.383Z,33.06
2018-08-07T11:30:42.380Z,33.07
2018-08-07T11:31:42.385Z,32.99
2018-08-07T11:32:42.404Z,33.11
2018-08-07T11:33:42.405Z,33.15
2018-08-07T11:34:42.403Z,33.15
2018-08-07T11:35:42.413Z,33.21
2018-08-07T11:36:42.421Z,33.19
2018-08-07T11:37:42.171Z,33.15
2018-08-07T11:38:42.178Z,33.16
2018-08-07T11:39:42.437Z,33.18
2018-08-07T11:40:42.446Z,33.28
2018-08-07T11:41:42.200Z,33.31
2018-08-07T11:42:42.458Z,33.31
2018-08-07T11:43:42.464Z,33.35
2018-08-07T11:44:42.479Z,33.31
2018-08-07T11:45:42.476Z,33.35
2018-08-07T11:46:42.481Z,33.35
2018-08-07T11:47:42.488Z,33.31
2018-08-07T11:48:42.497Z,33.41
2018-08-07T11:49:42.502Z,33.35
2018-08-07T11:50:42.508Z,33.38
2018-08-07T11:51:42.515Z,33.44
2018-08-07T11:52:42.530Z,33.38
2018-08-07T11:53:42.527Z,33.39
2018-08-07T11:54:42.539Z,33.51
2018-08-07T11:55:42.288Z,33.45
2018-08-07T11:56:42.546Z,33.59
2018-08-07T11:57:42.302Z,33.51
2018-08-07T11:58:42.560Z,33.51
2018-08-07T11:59:42.566Z,33.59
2018-08-07T12:00:42.324Z,33.54
2018-08-07T12:01:42.331Z,33.57
2018-08-07T12:02:42.591Z,33.56
2018-08-07T12:03:42.595Z,33.57
2018-08-07T12:04:42.601Z,33.65
2018-08-07T12:05:42.609Z,33.63
2018-08-07T12:06:42.613Z,33.61
2018-08-07T12:07:42.618Z,33.6
2018-08-07T12:08:42.629Z,33.75
2018-08-07T12:09:42.675Z,33.69
2018-08-07T12:10:42.643Z,33.78
2018-08-07T12:11:42.647Z,33.81
2018-08-07T12:12:42.652Z,33.86
2018-08-07T12:13:42.661Z,33.81
2018-08-07T12:14:42.418Z,33.82
2018-08-07T12:15:42.673Z,33.81
2018-08-07T12:16:42.685Z,33.79
2018-08-07T12:17:42.435Z,33.91
2018-08-07T12:18:42.447Z,33.88
2018-08-07T12:19:42.704Z,33.95
2018-08-07T12:20:42.714Z,33.91
2018-08-07T12:21:42.935Z,33.97
2018-08-07T12:22:42.738Z,33.98
2018-08-07T12:23:42.730Z,34.05
2018-08-07T12:24:42.783Z,34.03
2018-08-07T12:25:42.492Z,34
2018-08-07T12:26:42.749Z,34.09
2018-08-07T12:27:42.626Z,34.13
2018-08-07T12:28:42.766Z,34.09
2018-08-07T12:29:42.774Z,34.13
2018-08-07T12:30:42.783Z,34.1
2018-08-07T12:31:42.786Z,34.13
2018-08-07T12:32:42.797Z,34.17
2018-08-07T12:33:42.797Z,34.21
2018-08-07T12:34:42.804Z,34.19
2018-08-07T12:35:42.812Z,34.16
2018-08-07T12:36:42.819Z,34.24
2018-08-07T12:37:42.824Z,34.16
2018-08-07T12:38:42.584Z,34.24
2018-08-07T12:39:42.594Z,34.17
2018-08-07T12:40:42.596Z,34.27
2018-08-07T12:41:42.858Z,34.24
2018-08-07T12:42:42.609Z,34.21
2018-08-07T12:43:42.871Z,34.28
2018-08-07T12:44:42.877Z,34.28
2018-08-07T12:45:42.883Z,34.34
2018-08-07T12:46:43.004Z,34.3
2018-08-07T12:47:42.645Z,34.35
2018-08-07T12:48:42.909Z,34.4
2018-08-07T12:49:42.912Z,34.42
2018-08-07T12:50:42.667Z,34.32
2018-08-07T12:51:42.422Z,34.46
2018-08-07T12:52:42.939Z,34.49
2018-08-07T12:53:42.688Z,34.49
2018-08-07T12:54:42.953Z,34.37
2018-08-07T12:55:42.957Z,34.44
2018-08-07T12:56:42.966Z,34.47
2018-08-07T12:57:42.991Z,34.52
2018-08-07T12:58:42.724Z,34.58
2018-08-07T12:59:42.986Z,34.58
2018-08-07T13:00:42.989Z,34.62
2018-08-07T13:01:42.751Z,34.65
2018-08-07T13:02:42.751Z,34.72
2018-08-07T13:03:42.762Z,34.65
2018-08-07T13:04:43.025Z,34.62
2018-08-07T13:05:43.033Z,34.69
2018-08-07T13:06:42.851Z,34.7
2018-08-07T13:07:42.536Z,34.62
2018-08-07T13:08:43.046Z,34.62
2018-08-07T13:09:43.054Z,34.61
2018-08-07T13:10:43.083Z,34.66
2018-08-07T13:11:42.834Z,34.65
2018-08-07T13:12:42.826Z,34.64
2018-08-07T13:13:43.083Z,34.59
2018-08-07T13:14:43.090Z,34.69
2018-08-07T13:15:42.849Z,34.72
2018-08-07T13:16:42.853Z,34.69
2018-08-07T13:17:43.438Z,34.75
2018-08-07T13:18:42.869Z,34.75
2018-08-07T13:19:42.626Z,34.78
2018-08-07T13:20:43.134Z,34.84
2018-08-07T13:21:42.640Z,34.8
2018-08-07T13:22:43.157Z,34.84
2018-08-07T13:23:43.183Z,34.89